Time;durP1;ratioP1;P1;durP2;ratioP2;P2;SDS_P1;SDS_P2;PMS_P1;PMS_P2;Temp;Humidity;BMP_temperature;BMP_pressure;BME280_temperature;BME280_humidity;BME280_pressure;Samples;Min_cycle;Max_cycle;Signal;HPM_P1;HPM_P2
2023/09/02 00:00:35;;;;;;;16.85;13.05;;;13.50;99.90;;;;;;4977734;28;90117;-35
2023/09/02 00:03:01;;;;;;;14.27;12.80;;;13.50;99.90;;;;;;4977952;28;89010;-33
2023/09/02 00:05:27;;;;;;;15.48;13.90;;;13.40;99.90;;;;;;4977747;28;89808;-32
2023/09/02 00:07:52;;;;;;;15.63;14.18;;;13.40;99.90;;;;;;4978312;28;90199;-33
2023/09/02 00:10:18;;;;;;;15.07;13.32;;;13.40;99.90;;;;;;4965203;28;90666;-34
2023/09/02 00:12:44;;;;;;;16.80;14.38;;;13.40;99.90;;;;;;4959098;28;89733;-36
2023/09/02 00:15:10;;;;;;;15.35;13.85;;;13.40;99.90;;;;;;4971835;28;89577;-33
2023/09/02 00:17:36;;;;;;;17.48;14.52;;;13.30;99.90;;;;;;4959751;28;88578;-33
2023/09/02 00:20:05;;;;;;;15.82;13.82;;;13.40;99.90;;;;;;4960062;28;90207;-34
2023/09/02 00:22:32;;;;;;;15.63;14.13;;;13.40;99.90;;;;;;4959152;28;89801;-35
2023/09/02 00:24:58;;;;;;;15.55;13.95;;;13.40;99.90;;;;;;4959606;28;88874;-34
2023/09/02 00:27:24;;;;;;;18.88;15.60;;;13.40;99.90;;;;;;4958084;28;89658;-36
2023/09/02 00:29:49;;;;;;;17.88;15.23;;;13.40;99.90;;;;;;4958180;28;90397;-32
2023/09/02 00:32:15;;;;;;;17.02;14.45;;;13.40;99.90;;;;;;4965165;28;90233;-32
2023/09/02 00:34:41;;;;;;;17.38;15.70;;;13.30;99.90;;;;;;4977513;28;90349;-33
2023/09/02 00:37:06;;;;;;;16.42;14.60;;;13.30;99.90;;;;;;4977423;28;88717;-34
2023/09/02 00:39:32;;;;;;;14.10;12.60;;;13.20;99.90;;;;;;4964905;28;90280;-33
2023/09/02 00:42:00;;;;;;;15.32;13.80;;;13.20;99.90;;;;;;4971389;28;90248;-34
2023/09/02 00:44:25;;;;;;;12.20;11.10;;;13.10;99.90;;;;;;4971169;28;89367;-33
2023/09/02 00:46:52;;;;;;;13.27;12.13;;;13.10;99.90;;;;;;4971560;28;88873;-37
2023/09/02 00:49:18;;;;;;;15.75;13.93;;;13.10;99.90;;;;;;4971790;28;92252;-34
2023/09/02 00:51:43;;;;;;;16.27;14.73;;;13.10;99.90;;;;;;4965964;28;89630;-33
2023/09/02 00:54:09;;;;;;;17.48;13.73;;;13.10;99.90;;;;;;4965562;28;90190;-32
2023/09/02 00:56:37;;;;;;;16.35;12.15;;;13.10;99.90;;;;;;4959007;28;89757;-33
2023/09/02 00:59:06;;;;;;;16.85;15.15;;;13.20;99.90;;;;;;4960507;28;89963;-33
2023/09/02 01:01:35;;;;;;;15.20;13.55;;;13.20;99.90;;;;;;4976769;28;89345;-38
2023/09/02 01:04:04;;;;;;;15.40;13.95;;;13.20;99.90;;;;;;4975727;28;90340;-32
2023/09/02 01:06:30;;;;;;;15.02;13.52;;;13.10;99.90;;;;;;4966948;28;88312;-37
2023/09/02 01:08:56;;;;;;;16.60;14.25;;;13.10;99.90;;;;;;4977628;28;90138;-32
2023/09/02 01:11:21;;;;;;;17.90;16.08;;;13.10;99.90;;;;;;4976896;28;89779;-35
2023/09/02 01:13:47;;;;;;;16.65;15.05;;;13.10;99.90;;;;;;4977067;28;89426;-31
2023/09/02 01:16:13;;;;;;;17.00;15.25;;;13.10;99.90;;;;;;4976921;28;88456;-32
2023/09/02 01:18:39;;;;;;;20.10;16.27;;;13.10;99.90;;;;;;4975558;28;89948;-36
2023/09/02 01:21:17;;;;;;;15.95;14.35;;;13.10;99.90;;;;;;4976613;28;90687;-33
2023/09/02 01:24:29;;;;;;;18.02;16.20;;;13.20;99.90;;;;;;4977413;28;91847;-34
2023/09/02 01:27:09;;;;;;;16.67;15.07;;;13.20;99.90;;;;;;4971500;28;89089;-34
2023/09/02 01:29:39;;;;;;;17.45;15.75;;;13.10;99.90;;;;;;4978017;28;90361;-32
2023/09/02 01:32:07;;;;;;;17.63;15.88;;;13.20;99.90;;;;;;4976587;28;89695;-34
2023/09/02 01:34:36;;;;;;;17.05;15.38;;;13.10;99.90;;;;;;4978592;28;89649;-37
2023/09/02 01:37:04;;;;;;;15.07;13.63;;;13.20;99.90;;;;;;4980396;28;88755;-33
2023/09/02 01:39:30;;;;;;;;;;;13.10;99.90;;;;;;4968563;28;89963;-34
2023/09/02 01:41:57;;;;;;;12.98;11.77;;;13.10;99.90;;;;;;4980865;28;89713;-33
2023/09/02 01:44:24;;;;;;;13.30;12.00;;;13.10;99.90;;;;;;4967926;28;89920;-37
2023/09/02 01:46:51;;;;;;;15.80;13.32;;;13.10;99.90;;;;;;4961738;28;89456;-34
2023/09/02 01:49:16;;;;;;;14.38;13.02;;;13.10;99.90;;;;;;4960875;28;90312;-34
2023/09/02 01:51:43;;;;;;;15.05;13.75;;;13.10;99.90;;;;;;4961154;28;89654;-33
2023/09/02 01:54:08;;;;;;;13.82;12.50;;;13.10;99.90;;;;;;4961504;28;89945;-36
2023/09/02 01:56:35;;;;;;;14.77;13.27;;;13.10;99.90;;;;;;4961967;28;89231;-34
2023/09/02 01:59:00;;;;;;;15.02;13.63;;;13.00;99.90;;;;;;4961270;28;90794;-36
2023/09/02 02:01:26;;;;;;;14.38;12.95;;;13.00;99.90;;;;;;4973698;28;90154;-36
2023/09/02 02:04:00;;;;;;;13.80;12.68;;;13.10;99.90;;;;;;4973768;28;89179;-34
2023/09/02 02:06:26;;;;;;;16.48;14.18;;;13.10;99.90;;;;;;4951024;28;89464;-32
2023/09/02 02:09:00;;;;;;;16.35;14.65;;;13.00;99.90;;;;;;4966590;28;90394;-32
2023/09/02 02:11:28;;;;;;;16.85;15.10;;;13.10;99.90;;;;;;4960688;28;90484;-34
2023/09/02 02:14:00;;;;;;;17.55;15.93;;;13.10;99.90;;;;;;4962949;28;90347;-35
2023/09/02 02:16:26;;;;;;;14.45;13.13;;;13.10;99.90;;;;;;4961686;28;89610;-35
2023/09/02 02:18:51;;;;;;;15.98;14.27;;;13.00;99.90;;;;;;4962026;28;90263;-33
2023/09/02 02:21:17;;;;;;;16.30;14.48;;;13.00;99.90;;;;;;4971122;28;89847;-32
2023/09/02 02:23:43;;;;;;;17.70;16.10;;;13.00;99.90;;;;;;4964316;28;88957;-32
2023/09/02 02:26:08;;;;;;;16.02;14.55;;;12.90;99.90;;;;;;4961369;28;90151;-32
2023/09/02 02:28:34;;;;;;;17.10;15.50;;;13.00;99.90;;;;;;4960798;28;90413;-34
2023/09/02 02:31:00;;;;;;;16.38;14.88;;;12.90;99.90;;;;;;4960696;28;89160;-32
2023/09/02 02:33:26;;;;;;;17.85;16.17;;;12.90;99.90;;;;;;4977119;28;89924;-31
2023/09/02 02:35:51;;;;;;;16.23;14.52;;;12.90;99.90;;;;;;4978917;28;88690;-36
2023/09/02 02:38:17;;;;;;;18.15;16.45;;;13.00;99.90;;;;;;4966349;28;89296;-36
2023/09/02 02:40:42;;;;;;;17.13;15.45;;;12.90;99.90;;;;;;4979574;28;89996;-31
2023/09/02 02:43:08;;;;;;;19.45;17.67;;;12.90;99.90;;;;;;4963037;28;89249;-35
2023/09/02 02:45:34;;;;;;;18.50;16.55;;;12.90;99.90;;;;;;4970277;28;89282;-34
2023/09/02 02:48:00;;;;;;;18.92;16.85;;;12.90;99.90;;;;;;4962863;28;90228;-31
2023/09/02 02:50:25;;;;;;;14.82;13.38;;;12.90;99.90;;;;;;4969981;28;90253;-32
2023/09/02 02:52:51;;;;;;;16.02;14.38;;;13.00;99.90;;;;;;4963085;28;89431;-33
2023/09/02 02:55:17;;;;;;;15.65;14.20;;;12.80;99.90;;;;;;4960000;28;88677;-34
2023/09/02 02:57:44;;;;;;;16.40;14.80;;;12.70;99.90;;;;;;4960334;28;91087;-33
2023/09/02 03:00:10;;;;;;;15.23;13.93;;;12.70;99.90;;;;;;4959133;28;90839;-34
2023/09/02 03:02:36;;;;;;;18.83;16.83;;;12.70;99.90;;;;;;4975886;28;89593;-34
2023/09/02 03:05:02;;;;;;;17.67;16.02;;;12.70;99.90;;;;;;4979441;28;88731;-35
2023/09/02 03:07:28;;;;;;;17.23;15.73;;;12.60;99.90;;;;;;4965234;28;90393;-31
2023/09/02 03:09:53;;;;;;;18.67;16.88;;;12.60;99.90;;;;;;4979448;28;89505;-33
2023/09/02 03:12:19;;;;;;;20.58;15.63;;;12.60;99.90;;;;;;4978545;28;90361;-31
2023/09/02 03:14:48;;;;;;;17.25;15.77;;;12.60;99.90;;;;;;4978733;28;89463;-34
2023/09/02 03:17:14;;;;;;;17.73;16.13;;;12.60;99.90;;;;;;4976843;28;90198;-33
2023/09/02 03:19:58;;;;;;;17.98;16.27;;;12.60;99.90;;;;;;4978334;28;89162;-34
2023/09/02 03:22:24;;;;;;;18.75;16.95;;;12.60;99.90;;;;;;4977245;28;89235;-33
2023/09/02 03:24:53;;;;;;;19.15;17.25;;;12.50;99.90;;;;;;4977671;28;89328;-32
2023/09/02 03:27:19;;;;;;;19.95;17.80;;;12.50;99.90;;;;;;4966256;28;90563;-32
2023/09/02 03:29:48;;;;;;;18.73;16.85;;;12.60;99.90;;;;;;4975329;28;89764;-33
2023/09/02 03:32:14;;;;;;;18.45;16.65;;;12.60;99.90;;;;;;4977896;28;89655;-34
2023/09/02 03:34:40;;;;;;;18.15;16.30;;;12.60;99.90;;;;;;4978757;28;88039;-33
2023/09/02 03:37:05;;;;;;;18.85;17.15;;;12.70;99.90;;;;;;4965305;28;90215;-36
2023/09/02 03:39:33;;;;;;;20.90;18.80;;;12.70;99.90;;;;;;4966077;28;89632;-32
2023/09/02 03:41:59;;;;;;;19.90;17.63;;;12.70;99.90;;;;;;4959604;28;89777;-31
2023/09/02 03:44:25;;;;;;;20.05;17.98;;;12.70;99.90;;;;;;4958755;28;87995;-35
2023/09/02 03:46:51;;;;;;;18.65;16.77;;;12.80;99.90;;;;;;4964616;28;91404;-31
2023/09/02 03:49:16;;;;;;;21.33;16.73;;;12.80;99.90;;;;;;4960095;28;90332;-34
2023/09/02 03:51:42;;;;;;;16.65;15.18;;;12.70;99.90;;;;;;4977365;28;90614;-35
2023/09/02 03:54:09;;;;;;;15.38;14.02;;;12.60;99.90;;;;;;4977783;28;89298;-33
2023/09/02 03:56:36;;;;;;;17.35;15.65;;;12.60;99.90;;;;;;4977318;28;89819;-33
2023/09/02 03:59:03;;;;;;;15.68;14.25;;;12.60;99.90;;;;;;4976844;28;90093;-36
2023/09/02 04:01:30;;;;;;;16.85;15.25;;;12.60;99.90;;;;;;4978293;28;90318;-33
2023/09/02 04:03:56;;;;;;;17.73;15.90;;;12.60;99.90;;;;;;4978415;28;88217;-35
2023/09/02 04:06:22;;;;;;;18.15;16.45;;;12.60;99.90;;;;;;4978033;28;89702;-33
2023/09/02 04:08:47;;;;;;;20.15;18.10;;;12.50;99.90;;;;;;4977610;28;89769;-35
2023/09/02 04:11:13;;;;;;;20.33;18.42;;;12.60;99.90;;;;;;4958705;28;90246;-34
2023/09/02 04:13:39;;;;;;;19.73;17.83;;;12.60;99.90;;;;;;4960045;28;90133;-34
2023/09/02 04:16:05;;;;;;;23.33;20.95;;;12.70;99.90;;;;;;4966128;28;89207;-33
2023/09/02 04:18:31;;;;;;;24.15;21.35;;;12.70;99.90;;;;;;4965990;28;89641;-32
2023/09/02 04:20:59;;;;;;;24.00;21.50;;;12.70;99.90;;;;;;4967861;28;89273;-33
2023/09/02 04:23:25;;;;;;;25.35;22.65;;;12.80;99.90;;;;;;4978210;28;87902;-33
2023/09/02 04:25:53;;;;;;;22.13;19.88;;;12.80;99.90;;;;;;4960189;28;90305;-35
2023/09/02 04:28:19;;;;;;;29.08;22.02;;;12.80;99.90;;;;;;4973004;28;90771;-37
2023/09/02 04:30:46;;;;;;;26.38;23.45;;;12.80;99.90;;;;;;4962046;28;90101;-32
2023/09/02 04:33:13;;;;;;;26.13;23.42;;;12.90;99.90;;;;;;4963721;28;87533;-35
2023/09/02 04:35:41;;;;;;;26.47;23.77;;;13.00;99.90;;;;;;4960578;28;89331;-35
2023/09/02 04:38:07;;;;;;;28.30;25.13;;;13.00;99.90;;;;;;4963992;28;90203;-34
2023/09/02 04:40:50;;;;;;;30.35;25.77;;;13.00;99.90;;;;;;4961341;28;90918;-31
2023/09/02 04:43:17;;;;;;;28.77;25.90;;;13.00;99.90;;;;;;4963658;28;88984;-35
2023/09/02 04:45:43;;;;;;;28.27;25.23;;;13.10;99.90;;;;;;4961514;28;90467;-34
2023/09/02 04:48:10;;;;;;;26.00;23.05;;;13.10;99.90;;;;;;4963703;28;89386;-33
2023/09/02 04:50:36;;;;;;;28.27;25.15;;;13.10;99.90;;;;;;4961316;28;89425;-36
2023/09/02 04:53:03;;;;;;;28.42;24.90;;;13.10;99.90;;;;;;4960805;28;88035;-32
2023/09/02 04:55:29;;;;;;;22.70;20.23;;;13.20;99.90;;;;;;4959964;28;89818;-33
2023/09/02 04:57:56;;;;;;;23.05;20.83;;;13.10;99.90;;;;;;4963292;28;89729;-36
2023/09/02 05:00:26;;;;;;;20.75;18.77;;;13.10;99.90;;;;;;4963285;28;89702;-33
2023/09/02 05:02:52;;;;;;;20.35;18.35;;;13.00;99.90;;;;;;4974234;28;89620;-36
2023/09/02 05:05:18;;;;;;;22.20;19.88;;;13.10;99.90;;;;;;4962407;28;90368;-34
2023/09/02 05:07:45;;;;;;;20.80;18.20;;;13.10;99.90;;;;;;4963993;28;89719;-35
2023/09/02 05:10:12;;;;;;;17.63;16.02;;;13.10;99.90;;;;;;4963772;28;89889;-36
2023/09/02 05:12:37;;;;;;;20.70;18.63;;;13.20;99.90;;;;;;4963260;28;89701;-33
2023/09/02 05:15:04;;;;;;;20.20;18.20;;;13.10;99.90;;;;;;4964046;28;90300;-37
2023/09/02 05:17:33;;;;;;;19.48;17.65;;;13.10;99.90;;;;;;4962860;28;89495;-33
2023/09/02 05:20:00;;;;;;;20.10;18.02;;;13.10;99.90;;;;;;4975546;28;89849;-35
2023/09/02 05:22:25;;;;;;;21.45;19.38;;;13.10;99.90;;;;;;4962475;28;89695;-33
2023/09/02 05:24:52;;;;;;;17.60;15.93;;;13.10;99.90;;;;;;4964226;28;92112;-36
2023/09/02 05:27:18;;;;;;;17.90;16.20;;;13.20;99.90;;;;;;4962384;28;90738;-33
2023/09/02 05:29:44;;;;;;;19.77;17.77;;;13.20;99.90;;;;;;4963582;28;90641;-34
2023/09/02 05:32:09;;;;;;;20.25;17.65;;;13.20;99.90;;;;;;4963378;28;89326;-36
2023/09/02 05:34:35;;;;;;;23.25;20.92;;;13.30;99.90;;;;;;4974085;28;90105;-36
2023/09/02 05:37:02;;;;;;;22.98;20.67;;;13.30;99.90;;;;;;4975206;28;89678;-34
2023/09/02 05:39:28;;;;;;;24.38;22.02;;;13.30;99.90;;;;;;4960472;28;90275;-31
2023/09/02 05:41:53;;;;;;;24.77;22.15;;;13.40;99.90;;;;;;4966534;28;88238;-32
2023/09/02 05:44:19;;;;;;;24.40;21.90;;;13.40;99.90;;;;;;4981152;28;90163;-34
2023/09/02 05:46:45;;;;;;;23.27;20.65;;;13.40;99.90;;;;;;4979660;28;89938;-35
2023/09/02 05:49:12;;;;;;;24.67;22.15;;;13.50;99.90;;;;;;4968119;28;90406;-33
2023/09/02 05:51:38;;;;;;;23.88;21.50;;;13.50;99.90;;;;;;4955031;28;90005;-32
2023/09/02 05:54:04;;;;;;;26.00;23.42;;;13.50;99.90;;;;;;4961187;28;90271;-33
2023/09/02 05:56:31;;;;;;;25.23;22.77;;;13.60;99.90;;;;;;4961212;28;90222;-34
2023/09/02 05:58:58;;;;;;;28.93;25.40;;;13.60;99.90;;;;;;4961623;28;89774;-33
2023/09/02 06:01:23;;;;;;;31.70;27.42;;;13.60;99.90;;;;;;4966163;28;89549;-33
2023/09/02 06:03:49;;;;;;;28.50;24.60;;;13.60;99.90;;;;;;4967569;28;90265;-35
2023/09/02 06:06:14;;;;;;;28.63;25.65;;;13.70;99.90;;;;;;4966348;28;89735;-36
2023/09/02 06:08:40;;;;;;;29.05;26.05;;;13.70;99.90;;;;;;4968287;28;89916;-34
2023/09/02 06:11:06;;;;;;;28.75;25.65;;;13.70;99.90;;;;;;4965812;28;88931;-35
2023/09/02 06:13:32;;;;;;;41.08;30.05;;;13.70;99.90;;;;;;4965252;28;89501;-34
2023/09/02 06:15:59;;;;;;;30.45;24.98;;;13.70;99.90;;;;;;4969575;28;90595;-36
2023/09/02 06:18:25;;;;;;;28.20;25.20;;;13.70;99.90;;;;;;4964851;28;90940;-34
2023/09/02 06:20:50;;;;;;;30.48;26.98;;;13.70;99.90;;;;;;4979421;28;88900;-35
2023/09/02 06:23:16;;;;;;;29.52;25.02;;;13.70;99.90;;;;;;4972184;28;90045;-34
2023/09/02 06:25:42;;;;;;;29.40;24.50;;;13.70;99.90;;;;;;4975690;28;89584;-33
2023/09/02 06:28:07;;;;;;;36.33;25.38;;;13.70;99.90;;;;;;4971485;28;89732;-37
2023/09/02 06:30:36;;;;;;;32.20;27.58;;;13.80;99.90;;;;;;4975506;28;88737;-36
2023/09/02 06:33:02;;;;;;;30.30;23.77;;;13.80;99.90;;;;;;4975433;28;90184;-36
2023/09/02 06:35:30;;;;;;;28.08;24.83;;;13.80;99.90;;;;;;4973109;28;89699;-33
2023/09/02 06:37:56;;;;;;;30.65;24.40;;;13.80;99.90;;;;;;4974904;28;89718;-33
2023/09/02 06:40:22;;;;;;;31.58;26.20;;;13.90;99.90;;;;;;4961495;28;90020;-33
2023/09/02 06:42:47;;;;;;;26.50;23.52;;;13.90;99.90;;;;;;4963753;28;90417;-37
2023/09/02 06:45:13;;;;;;;31.13;25.23;;;13.90;99.90;;;;;;4972078;28;89726;-33
2023/09/02 06:47:39;;;;;;;32.30;25.58;;;13.90;99.90;;;;;;4963121;28;90710;-37
2023/09/02 06:50:05;;;;;;;32.90;25.13;;;13.90;99.90;;;;;;4958006;28;88723;-33
2023/09/02 06:52:30;;;;;;;25.55;21.75;;;13.90;99.90;;;;;;4959817;28;90354;-35
2023/09/02 06:54:56;;;;;;;25.52;22.83;;;14.00;99.90;;;;;;4969375;28;88828;-34
2023/09/02 06:57:22;;;;;;;27.15;24.38;;;14.00;99.90;;;;;;4972226;28;90738;-33
2023/09/02 06:59:47;;;;;;;24.33;21.77;;;14.10;99.90;;;;;;4968512;28;89225;-33
2023/09/02 07:02:13;;;;;;;26.58;23.00;;;14.10;99.90;;;;;;4969004;28;91725;-33
2023/09/02 07:04:38;;;;;;;31.52;25.25;;;14.10;99.90;;;;;;4965501;28;90759;-34
2023/09/02 07:07:04;;;;;;;32.40;25.52;;;14.10;99.90;;;;;;4964723;28;88697;-33
2023/09/02 07:09:30;;;;;;;29.27;25.45;;;14.20;99.90;;;;;;4959003;28;88739;-35
2023/09/02 07:11:55;;;;;;;25.60;22.90;;;14.20;99.90;;;;;;4969659;28;90554;-35
2023/09/02 07:14:21;;;;;;;26.73;23.95;;;14.20;99.90;;;;;;4958368;28;89283;-35
2023/09/02 07:16:49;;;;;;;29.73;25.00;;;14.20;99.90;;;;;;4962714;28;90138;-33
2023/09/02 07:19:15;;;;;;;27.48;24.55;;;14.30;99.90;;;;;;4967915;28;88108;-34
2023/09/02 07:21:40;;;;;;;30.20;24.98;;;14.30;99.90;;;;;;4972085;28;91462;-35
2023/09/02 07:24:06;;;;;;;30.67;27.25;;;14.40;99.90;;;;;;4959692;28;90121;-35
2023/09/02 07:26:32;;;;;;;31.27;25.65;;;14.40;99.90;;;;;;4961112;28;90263;-35
2023/09/02 07:28:58;;;;;;;32.05;26.67;;;14.50;99.90;;;;;;4959229;28;89840;-32
2023/09/02 07:31:24;;;;;;;30.27;24.92;;;14.50;99.90;;;;;;4963810;28;90561;-34
2023/09/02 07:33:50;;;;;;;30.60;25.55;;;14.50;99.90;;;;;;4964631;28;89449;-35
2023/09/02 07:36:16;;;;;;;34.30;30.25;;;14.50;99.90;;;;;;4967925;28;89273;-33
2023/09/02 07:38:44;;;;;;;38.85;28.38;;;14.60;99.90;;;;;;4974025;28;88397;-34
2023/09/02 07:41:09;;;;;;;39.22;28.33;;;14.60;99.90;;;;;;4973886;28;90213;-34
2023/09/02 07:43:36;;;;;;;31.75;28.40;;;14.60;99.90;;;;;;4974607;28;91256;-32
2023/09/02 07:46:01;;;;;;;33.13;25.27;;;14.70;99.90;;;;;;4973210;28;89732;-34
2023/09/02 07:48:27;;;;;;;19.73;15.82;;;14.80;99.90;;;;;;4974722;28;88881;-35
2023/09/02 07:50:53;;;;;;;29.95;26.10;;;14.80;99.90;;;;;;4972973;28;90281;-35
2023/09/02 07:53:18;;;;;;;35.55;27.25;;;14.80;99.90;;;;;;4973001;28;91934;-34
2023/09/02 07:55:44;;;;;;;32.63;28.23;;;14.90;99.90;;;;;;4973491;28;90912;-32
2023/09/02 07:58:10;;;;;;;32.25;27.77;;;14.90;99.90;;;;;;4974575;28;88719;-36
2023/09/02 08:00:36;;;;;;;31.90;28.60;;;15.00;99.90;;;;;;4972010;28;90862;-33
2023/09/02 08:03:03;;;;;;;36.58;27.77;;;15.00;99.90;;;;;;4975715;28;92013;-35
2023/09/02 08:05:29;;;;;;;33.25;28.25;;;15.00;99.90;;;;;;4961652;28;89737;-35
2023/09/02 08:07:55;;;;;;;30.23;26.95;;;15.00;99.90;;;;;;4956383;28;88902;-34
2023/09/02 08:10:21;;;;;;;31.38;27.92;;;15.10;99.90;;;;;;4955506;28;90147;-35
2023/09/02 08:12:46;;;;;;;38.30;28.40;;;15.10;99.90;;;;;;4958771;28;90048;-32
2023/09/02 08:15:13;;;;;;;35.17;31.42;;;15.10;99.90;;;;;;4960950;28;87965;-36
2023/09/02 08:17:41;;;;;;;36.58;29.55;;;15.20;99.90;;;;;;4963161;28;89767;-35
2023/09/02 08:20:08;;;;;;;33.67;30.05;;;15.20;99.90;;;;;;4973163;28;90329;-33
2023/09/02 08:22:34;;;;;;;39.97;30.70;;;15.30;99.90;;;;;;4961978;28;89314;-35
2023/09/02 08:25:00;;;;;;;36.88;29.90;;;15.40;99.90;;;;;;4956220;28;88504;-32
2023/09/02 08:27:25;;;;;;;34.97;30.88;;;15.40;99.90;;;;;;4955646;28;90396;-34
2023/09/02 08:29:52;;;;;;;35.10;30.65;;;15.50;99.90;;;;;;5009360;22;89851;-34
2023/09/02 08:32:17;;;;;;;34.88;30.23;;;15.50;99.90;;;;;;4994841;28;89874;-31
2023/09/02 08:34:43;;;;;;;42.30;32.10;;;15.60;99.90;;;;;;4979171;28;88417;-34
2023/09/02 08:37:09;;;;;;;38.72;32.13;;;15.70;99.90;;;;;;4995024;28;88629;-33
2023/09/02 08:39:34;;;;;;;43.00;32.53;;;15.80;99.90;;;;;;4994644;28;90348;-36
2023/09/02 08:42:00;;;;;;;35.78;31.70;;;15.80;99.90;;;;;;4994519;28;91729;-32
2023/09/02 08:44:34;;;;;;;41.60;31.92;;;15.80;99.90;;;;;;4994419;28;90025;-32
2023/09/02 08:47:02;;;;;;;43.33;30.98;;;16.00;99.90;;;;;;4994940;28;90487;-34
2023/09/02 08:49:28;;;;;;;32.97;28.43;;;16.00;99.90;;;;;;4993466;28;90785;-33
2023/09/02 08:51:55;;;;;;;37.63;29.30;;;16.00;99.90;;;;;;4994314;28;89975;-34
2023/09/02 08:54:22;;;;;;;39.67;31.42;;;16.00;99.90;;;;;;4993919;28;88812;-35
2023/09/02 08:56:49;;;;;;;37.17;29.50;;;16.10;99.90;;;;;;4993909;28;89659;-34
2023/09/02 08:59:15;;;;;;;35.15;29.33;;;16.10;99.90;;;;;;4994791;28;89936;-32
2023/09/02 09:01:45;;;;;;;34.33;29.13;;;16.20;99.90;;;;;;4994517;28;88495;-33
2023/09/02 09:04:13;;;;;;;35.70;30.73;;;16.20;99.90;;;;;;4993226;28;88948;-34
2023/09/02 09:06:39;;;;;;;;;;;16.20;99.90;;;;;;4995251;28;90008;-35
2023/09/02 09:09:08;;;;;;;34.40;29.33;;;16.30;99.90;;;;;;4996417;28;89078;-31
2023/09/02 09:11:38;;;;;;;34.35;27.33;;;16.30;99.90;;;;;;4994428;28;89662;-33
2023/09/02 09:14:09;;;;;;;36.72;30.13;;;16.40;99.90;;;;;;4995364;28;89875;-34
2023/09/02 09:16:36;;;;;;;32.05;28.42;;;16.40;99.90;;;;;;4995569;28;89322;-35
2023/09/02 09:19:03;;;;;;;35.35;29.83;;;16.50;99.90;;;;;;4993446;28;89410;-34
2023/09/02 09:21:29;;;;;;;39.78;30.52;;;16.60;99.90;;;;;;4993916;28;89567;-32
2023/09/02 09:23:55;;;;;;;30.70;26.67;;;16.70;99.90;;;;;;4995043;28;89612;-34
2023/09/02 09:26:24;;;;;;;37.05;28.52;;;16.70;99.90;;;;;;4993389;28;88259;-33
2023/09/02 09:28:51;;;;;;;30.10;26.25;;;16.70;99.90;;;;;;4993561;28;90288;-35
2023/09/02 09:31:17;;;;;;;32.58;27.50;;;16.80;99.90;;;;;;4993651;28;90621;-36
2023/09/02 09:33:55;;;;;;;33.67;27.40;;;16.90;99.90;;;;;;4992755;28;90842;-36
2023/09/02 09:36:22;;;;;;;31.40;26.55;;;17.10;99.90;;;;;;4994296;28;88522;-35
2023/09/02 09:38:58;;;;;;;32.03;24.75;;;17.20;99.90;;;;;;4994049;28;90021;-35
2023/09/02 09:41:25;;;;;;;34.90;26.13;;;17.20;99.90;;;;;;4993252;28;89834;-33
2023/09/02 09:44:06;;;;;;;29.30;25.75;;;17.40;99.90;;;;;;4993709;28;89998;-34
2023/09/02 09:46:44;;;;;;;31.35;24.20;;;17.50;99.90;;;;;;4996961;28;89487;-36
2023/09/02 09:49:27;;;;;;;29.65;24.60;;;17.60;99.90;;;;;;4997771;28;90693;-35
2023/09/02 09:52:01;;;;;;;29.70;24.98;;;17.60;99.90;;;;;;4995529;28;90036;-34
2023/09/02 09:54:42;;;;;;;30.27;23.77;;;17.70;99.90;;;;;;4997146;28;88901;-34
2023/09/02 09:57:09;;;;;;;31.85;25.35;;;17.70;99.90;;;;;;4989426;28;89281;-37
2023/09/02 09:59:36;;;;;;;30.02;23.52;;;17.80;99.90;;;;;;4997168;28;90429;-36
2023/09/02 10:02:05;;;;;;;27.27;22.90;;;17.80;99.90;;;;;;4996582;28;88810;-31
2023/09/02 10:04:32;;;;;;;25.45;22.10;;;17.80;99.90;;;;;;4996227;28;89954;-33
2023/09/02 10:07:02;;;;;;;26.20;22.42;;;17.80;99.90;;;;;;4997238;28;88848;-33
2023/09/02 10:09:41;;;;;;;30.42;20.65;;;17.80;99.90;;;;;;4995839;28;90791;-37
2023/09/02 10:12:12;;;;;;;24.90;21.58;;;17.80;99.90;;;;;;4992946;28;89655;-35
2023/09/02 10:14:43;;;;;;;26.23;22.25;;;17.80;99.90;;;;;;4992360;28;89734;-34
2023/09/02 10:17:09;;;;;;;22.83;20.23;;;18.00;99.90;;;;;;4996420;28;89141;-33
2023/09/02 10:19:36;;;;;;;30.70;22.48;;;18.20;99.90;;;;;;4997217;28;90319;-36
2023/09/02 10:22:03;;;;;;;30.67;21.75;;;18.30;99.90;;;;;;4996424;28;90615;-35
2023/09/02 10:24:32;;;;;;;29.95;20.55;;;18.30;99.90;;;;;;4996509;28;90347;-32
2023/09/02 10:27:00;;;;;;;28.15;20.27;;;18.30;99.90;;;;;;4996728;28;88738;-34
2023/09/02 10:29:35;;;;;;;24.13;19.33;;;18.40;99.90;;;;;;4996229;28;90165;-32
2023/09/02 10:32:09;;;;;;;20.98;18.40;;;18.40;99.90;;;;;;4995692;28;89744;-35
2023/09/02 10:34:53;;;;;;;25.63;17.88;;;18.40;99.90;;;;;;4985216;28;89725;-38
2023/09/02 10:37:25;;;;;;;21.27;18.17;;;18.40;99.90;;;;;;4985092;28;88626;-34
2023/09/02 10:40:04;;;;;;;25.55;19.35;;;18.40;99.90;;;;;;4996602;28;90340;-34
2023/09/02 10:42:30;;;;;;;23.52;18.20;;;18.50;99.90;;;;;;4996596;28;89398;-37
2023/09/02 10:44:57;;;;;;;23.30;20.27;;;18.50;99.90;;;;;;4996464;28;89184;-36
2023/09/02 10:47:22;;;;;;;21.42;18.15;;;18.60;99.90;;;;;;4995261;28;90162;-33
2023/09/02 10:49:49;;;;;;;24.15;19.45;;;18.70;99.90;;;;;;4996500;28;91139;-37
2023/09/02 10:52:15;;;;;;;19.00;17.10;;;18.70;99.90;;;;;;4997420;28;89962;-35
2023/09/02 10:55:01;;;;;;;24.35;19.60;;;18.70;99.90;;;;;;4994302;28;89588;-36
2023/09/02 10:57:28;;;;;;;23.98;17.95;;;18.70;99.90;;;;;;4996247;28;90261;-36
2023/09/02 11:00:33;;;;;;;22.75;16.63;;;18.80;99.90;;;;;;4996583;28;90126;-35
2023/09/02 11:02:59;;;;;;;21.98;17.42;;;18.90;99.90;;;;;;4994388;28;89686;-34
2023/09/02 11:05:29;;;;;;;19.63;17.38;;;19.00;99.90;;;;;;4995938;28;89344;-37
2023/09/02 11:07:55;;;;;;;18.70;16.60;;;19.00;99.90;;;;;;4982526;28;89934;-37
2023/09/02 11:10:41;;;;;;;21.50;18.60;;;19.00;99.90;;;;;;4995903;28;90059;-35
2023/09/02 11:13:07;;;;;;;20.30;18.02;;;19.00;99.90;;;;;;4995239;28;90564;-38
2023/09/02 11:15:34;;;;;;;19.63;16.67;;;19.20;99.90;;;;;;4995531;28;90014;-35
2023/09/02 11:18:27;;;;;;;26.83;17.35;;;19.10;99.90;;;;;;4997023;28;90441;-34
2023/09/02 11:20:53;;;;;;;23.17;16.90;;;19.20;99.90;;;;;;4995018;28;89500;-33
2023/09/02 11:23:22;;;;;;;27.50;19.08;;;19.20;99.90;;;;;;4995238;28;90302;-36
2023/09/02 11:26:00;;;;;;;31.88;17.25;;;19.20;99.90;;;;;;4996100;28;89248;-35
2023/09/02 11:28:27;;;;;;;23.08;17.98;;;19.30;99.90;;;;;;4996878;28;89666;-33
2023/09/02 11:31:04;;;;;;;22.70;16.27;;;19.30;99.90;;;;;;4995051;28;90126;-34
2023/09/02 11:33:30;;;;;;;19.52;17.50;;;19.40;99.90;;;;;;4977444;28;89837;-34
2023/09/02 11:36:06;;;;;;;23.33;18.38;;;19.40;99.90;;;;;;4996986;28;89730;-35
2023/09/02 11:38:34;;;;;;;22.85;18.80;;;19.40;99.90;;;;;;4993878;28;90129;-33
2023/09/02 11:41:00;;;;;;;22.15;18.88;;;19.40;99.90;;;;;;4995289;28;90254;-37
2023/09/02 11:43:30;;;;;;;20.88;17.67;;;19.30;99.90;;;;;;4994732;28;88991;-38
2023/09/02 11:45:56;;;;;;;24.63;18.50;;;19.40;99.90;;;;;;4994607;28;90172;-38
2023/09/02 11:48:25;;;;;;;20.20;15.45;;;19.40;99.90;;;;;;4996089;28;88242;-35
2023/09/02 11:50:50;;;;;;;20.20;18.00;;;19.50;99.90;;;;;;4995889;28;89906;-36
2023/09/02 11:53:16;;;;;;;18.50;16.55;;;19.50;99.90;;;;;;4995068;28;89632;-35
2023/09/02 11:55:43;;;;;;;17.70;15.18;;;19.40;99.90;;;;;;4995290;28;89865;-33
2023/09/02 11:58:14;;;;;;;18.00;15.63;;;19.50;99.90;;;;;;4995916;28;89939;-34
2023/09/02 12:00:43;;;;;;;23.63;16.75;;;19.60;99.90;;;;;;4994779;28;90630;-33
2023/09/02 12:03:09;;;;;;;18.83;16.17;;;19.60;99.90;;;;;;4995595;28;90508;-34
2023/09/02 12:05:52;;;;;;;26.52;15.98;;;19.60;99.90;;;;;;4994919;28;90728;-36
2023/09/02 12:08:18;;;;;;;17.50;15.48;;;19.60;99.90;;;;;;4994445;28;89614;-34
2023/09/02 12:10:46;;;;;;;29.45;16.88;;;19.60;99.90;;;;;;4995553;28;90647;-34
2023/09/02 12:13:12;;;;;;;18.55;16.20;;;19.70;99.90;;;;;;4995553;28;89010;-36
2023/09/02 12:15:37;;;;;;;18.23;15.98;;;19.90;99.90;;;;;;4995085;28;90035;-33
2023/09/02 12:18:04;;;;;;;18.25;15.32;;;20.10;99.90;;;;;;4995925;28;90333;-35
2023/09/02 12:20:29;;;;;;;20.70;15.93;;;20.00;99.90;;;;;;4994790;28;90009;-35
2023/09/02 12:22:55;;;;;;;20.42;16.25;;;20.00;99.90;;;;;;4994987;28;89808;-34
2023/09/02 12:25:22;;;;;;;17.65;15.73;;;20.10;99.90;;;;;;4994329;28;89537;-39
2023/09/02 12:27:49;;;;;;;22.33;16.77;;;20.00;99.90;;;;;;4995453;28;90579;-35
2023/09/02 12:30:30;;;;;;;19.48;16.00;;;20.00;99.90;;;;;;4993715;28;90846;-35